sensor_id;sensor_type;location;lat;lon;timestamp;temperature;humidity
9820;DHT22;4949;48.482;9.206;2023-04-25T00:03:37;9.20;72.60
9820;DHT22;4949;48.482;9.206;2023-04-25T00:08:43;9.20;72.80
9820;DHT22;4949;48.482;9.206;2023-04-25T00:13:44;9.20;72.90
9820;DHT22;4949;48.482;9.206;2023-04-25T00:18:46;9.20;73.30
9820;DHT22;4949;48.482;9.206;2023-04-25T00:23:55;9.20;73.60
9820;DHT22;4949;48.482;9.206;2023-04-25T00:28:56;9.30;72.20
9820;DHT22;4949;48.482;9.206;2023-04-25T00:33:56;9.30;72.30
9820;DHT22;4949;48.482;9.206;2023-04-25T00:38:57;9.30;72.20
9820;DHT22;4949;48.482;9.206;2023-04-25T00:43:59;9.30;72.40
9820;DHT22;4949;48.482;9.206;2023-04-25T00:49:01;9.40;71.00
9820;DHT22;4949;48.482;9.206;2023-04-25T00:54:04;9.40;70.90
9820;DHT22;4949;48.482;9.206;2023-04-25T00:59:05;9.30;71.00
9820;DHT22;4949;48.482;9.206;2023-04-25T01:04:06;9.40;71.40
9820;DHT22;4949;48.482;9.206;2023-04-25T01:09:07;9.30;71.20
9820;DHT22;4949;48.482;9.206;2023-04-25T01:14:08;9.30;71.40
9820;DHT22;4949;48.482;9.206;2023-04-25T01:19:10;9.30;71.40
9820;DHT22;4949;48.482;9.206;2023-04-25T01:24:14;9.40;71.50
9820;DHT22;4949;48.482;9.206;2023-04-25T01:29:17;9.30;71.30
9820;DHT22;4949;48.482;9.206;2023-04-25T01:34:18;9.30;71.90
9820;DHT22;4949;48.482;9.206;2023-04-25T01:39:20;9.30;71.90
9820;DHT22;4949;48.482;9.206;2023-04-25T01:44:21;9.30;72.50
9820;DHT22;4949;48.482;9.206;2023-04-25T01:49:24;9.20;72.30
9820;DHT22;4949;48.482;9.206;2023-04-25T01:54:25;9.40;72.60
9820;DHT22;4949;48.482;9.206;2023-04-25T01:59:26;9.20;71.70
9820;DHT22;4949;48.482;9.206;2023-04-25T02:04:26;9.20;71.70
9820;DHT22;4949;48.482;9.206;2023-04-25T02:09:27;9.20;71.90
9820;DHT22;4949;48.482;9.206;2023-04-25T02:14:33;9.20;71.80
9820;DHT22;4949;48.482;9.206;2023-04-25T02:19:34;9.20;72.10
9820;DHT22;4949;48.482;9.206;2023-04-25T02:24:34;9.20;71.80
9820;DHT22;4949;48.482;9.206;2023-04-25T02:29:40;9.20;72.00
9820;DHT22;4949;48.482;9.206;2023-04-25T02:34:40;9.20;72.30
9820;DHT22;4949;48.482;9.206;2023-04-25T02:39:44;9.20;72.60
9820;DHT22;4949;48.482;9.206;2023-04-25T02:44:47;9.20;73.20
9820;DHT22;4949;48.482;9.206;2023-04-25T02:49:48;9.20;72.80
9820;DHT22;4949;48.482;9.206;2023-04-25T02:54:49;9.10;72.60
9820;DHT22;4949;48.482;9.206;2023-04-25T02:59:52;9.10;72.50
9820;DHT22;4949;48.482;9.206;2023-04-25T03:04:53;9.00;72.40
9820;DHT22;4949;48.482;9.206;2023-04-25T03:09:54;9.10;72.60
9820;DHT22;4949;48.482;9.206;2023-04-25T03:14:55;9.00;72.40
9820;DHT22;4949;48.482;9.206;2023-04-25T03:19:57;9.00;72.40
9820;DHT22;4949;48.482;9.206;2023-04-25T03:25:00;8.90;72.50
9820;DHT22;4949;48.482;9.206;2023-04-25T03:30:00;8.80;72.80
9820;DHT22;4949;48.482;9.206;2023-04-25T03:35:01;8.80;72.50
9820;DHT22;4949;48.482;9.206;2023-04-25T03:40:02;8.80;72.50
9820;DHT22;4949;48.482;9.206;2023-04-25T03:45:04;8.80;73.70
9820;DHT22;4949;48.482;9.206;2023-04-25T03:50:06;8.80;74.60
9820;DHT22;4949;48.482;9.206;2023-04-25T03:55:07;8.80;74.60
9820;DHT22;4949;48.482;9.206;2023-04-25T04:00:09;8.80;75.00
9820;DHT22;4949;48.482;9.206;2023-04-25T04:05:10;8.80;76.00
9820;DHT22;4949;48.482;9.206;2023-04-25T04:10:11;8.80;76.40
9820;DHT22;4949;48.482;9.206;2023-04-25T04:15:12;8.70;75.90
9820;DHT22;4949;48.482;9.206;2023-04-25T04:20:13;8.90;76.50
9820;DHT22;4949;48.482;9.206;2023-04-25T04:25:16;8.70;76.00
9820;DHT22;4949;48.482;9.206;2023-04-25T04:30:17;8.70;75.50
9820;DHT22;4949;48.482;9.206;2023-04-25T04:35:18;8.80;73.40
9820;DHT22;4949;48.482;9.206;2023-04-25T04:40:19;8.80;72.40
9820;DHT22;4949;48.482;9.206;2023-04-25T04:45:20;8.80;73.10
9820;DHT22;4949;48.482;9.206;2023-04-25T04:50:22;8.80;72.80
9820;DHT22;4949;48.482;9.206;2023-04-25T04:55:23;8.80;72.20
9820;DHT22;4949;48.482;9.206;2023-04-25T05:00:24;9.00;72.70
9820;DHT22;4949;48.482;9.206;2023-04-25T05:05:25;8.90;72.70
9820;DHT22;4949;48.482;9.206;2023-04-25T05:10:26;8.80;72.80
9820;DHT22;4949;48.482;9.206;2023-04-25T05:15:26;8.80;72.80
9820;DHT22;4949;48.482;9.206;2023-04-25T05:20:30;8.80;72.70
9820;DHT22;4949;48.482;9.206;2023-04-25T05:25:35;8.80;72.50
9820;DHT22;4949;48.482;9.206;2023-04-25T05:30:39;8.80;72.80
9820;DHT22;4949;48.482;9.206;2023-04-25T05:35:42;8.80;72.70
9820;DHT22;4949;48.482;9.206;2023-04-25T05:40:43;8.80;72.80
9820;DHT22;4949;48.482;9.206;2023-04-25T05:45:44;8.80;72.70
9820;DHT22;4949;48.482;9.206;2023-04-25T05:50:45;8.90;72.70
9820;DHT22;4949;48.482;9.206;2023-04-25T05:55:49;9.00;72.50
9820;DHT22;4949;48.482;9.206;2023-04-25T06:00:49;9.10;72.50
9820;DHT22;4949;48.482;9.206;2023-04-25T06:05:53;9.20;72.30
9820;DHT22;4949;48.482;9.206;2023-04-25T06:10:53;9.30;72.10
9820;DHT22;4949;48.482;9.206;2023-04-25T06:15:54;9.30;71.90
9820;DHT22;4949;48.482;9.206;2023-04-25T06:20:57;9.40;72.30
9820;DHT22;4949;48.482;9.206;2023-04-25T06:25:58;9.30;71.40
9820;DHT22;4949;48.482;9.206;2023-04-25T06:31:03;9.30;71.50
9820;DHT22;4949;48.482;9.206;2023-04-25T06:36:06;9.40;71.50
9820;DHT22;4949;48.482;9.206;2023-04-25T06:41:07;9.30;72.00
9820;DHT22;4949;48.482;9.206;2023-04-25T06:46:08;9.30;71.80
9820;DHT22;4949;48.482;9.206;2023-04-25T06:51:08;9.60;71.70
9820;DHT22;4949;48.482;9.206;2023-04-25T06:56:09;9.40;71.00
9820;DHT22;4949;48.482;9.206;2023-04-25T07:01:17;9.40;70.50
9820;DHT22;4949;48.482;9.206;2023-04-25T07:06:20;9.50;70.50
9820;DHT22;4949;48.482;9.206;2023-04-25T07:11:20;9.40;70.50
9820;DHT22;4949;48.482;9.206;2023-04-25T07:16:23;9.50;70.70
9820;DHT22;4949;48.482;9.206;2023-04-25T07:21:24;9.50;71.90
9820;DHT22;4949;48.482;9.206;2023-04-25T07:26:25;9.50;72.00
9820;DHT22;4949;48.482;9.206;2023-04-25T07:31:26;9.60;73.20
9820;DHT22;4949;48.482;9.206;2023-04-25T07:36:28;9.50;72.70
9820;DHT22;4949;48.482;9.206;2023-04-25T07:41:28;9.50;73.60
9820;DHT22;4949;48.482;9.206;2023-04-25T07:46:29;9.50;73.60
9820;DHT22;4949;48.482;9.206;2023-04-25T07:51:32;9.40;75.20
9820;DHT22;4949;48.482;9.206;2023-04-25T07:56:35;9.40;75.70
9820;DHT22;4949;48.482;9.206;2023-04-25T08:01:36;9.40;75.80
9820;DHT22;4949;48.482;9.206;2023-04-25T08:06:39;9.50;76.90
9820;DHT22;4949;48.482;9.206;2023-04-25T08:11:48;9.40;77.20
9820;DHT22;4949;48.482;9.206;2023-04-25T08:16:49;9.40;77.00
9820;DHT22;4949;48.482;9.206;2023-04-25T08:21:50;9.40;78.20
9820;DHT22;4949;48.482;9.206;2023-04-25T08:26:53;9.40;79.50
9820;DHT22;4949;48.482;9.206;2023-04-25T08:31:58;9.50;79.80
9820;DHT22;4949;48.482;9.206;2023-04-25T08:36:59;9.50;79.40
9820;DHT22;4949;48.482;9.206;2023-04-25T08:42:01;9.50;80.10
9820;DHT22;4949;48.482;9.206;2023-04-25T08:47:04;9.40;79.70
9820;DHT22;4949;48.482;9.206;2023-04-25T08:52:07;9.30;79.50
9820;DHT22;4949;48.482;9.206;2023-04-25T08:57:12;9.50;80.70
9820;DHT22;4949;48.482;9.206;2023-04-25T09:02:13;9.30;80.10
9820;DHT22;4949;48.482;9.206;2023-04-25T09:07:18;9.40;81.10
9820;DHT22;4949;48.482;9.206;2023-04-25T09:12:22;9.30;80.30
9820;DHT22;4949;48.482;9.206;2023-04-25T09:17:23;9.30;78.60
9820;DHT22;4949;48.482;9.206;2023-04-25T09:22:24;9.20;78.90
9820;DHT22;4949;48.482;9.206;2023-04-25T09:27:25;9.10;78.50
9820;DHT22;4949;48.482;9.206;2023-04-25T09:32:27;9.10;78.30
9820;DHT22;4949;48.482;9.206;2023-04-25T09:37:32;9.20;77.90
9820;DHT22;4949;48.482;9.206;2023-04-25T09:42:33;8.90;75.60
9820;DHT22;4949;48.482;9.206;2023-04-25T09:47:39;8.60;76.80
9820;DHT22;4949;48.482;9.206;2023-04-25T09:52:44;8.60;77.50
9820;DHT22;4949;48.482;9.206;2023-04-25T09:57:49;8.60;76.30
9820;DHT22;4949;48.482;9.206;2023-04-25T10:02:54;8.20;78.60
9820;DHT22;4949;48.482;9.206;2023-04-25T10:07:56;8.10;78.30
9820;DHT22;4949;48.482;9.206;2023-04-25T10:13:00;7.90;78.40
9820;DHT22;4949;48.482;9.206;2023-04-25T10:18:01;7.90;78.80
9820;DHT22;4949;48.482;9.206;2023-04-25T10:23:13;7.80;80.10
9820;DHT22;4949;48.482;9.206;2023-04-25T10:28:18;7.80;79.30
9820;DHT22;4949;48.482;9.206;2023-04-25T10:33:31;7.50;80.90
9820;DHT22;4949;48.482;9.206;2023-04-25T10:38:45;7.40;83.40
9820;DHT22;4949;48.482;9.206;2023-04-25T10:43:58;7.20;81.20
9820;DHT22;4949;48.482;9.206;2023-04-25T10:49:01;7.10;81.10
9820;DHT22;4949;48.482;9.206;2023-04-25T10:54:04;7.30;81.80
9820;DHT22;4949;48.482;9.206;2023-04-25T10:59:11;7.30;80.40
9820;DHT22;4949;48.482;9.206;2023-04-25T11:04:29;7.10;79.70
9820;DHT22;4949;48.482;9.206;2023-04-25T11:09:36;7.10;80.50
9820;DHT22;4949;48.482;9.206;2023-04-25T11:14:39;7.20;80.40
9820;DHT22;4949;48.482;9.206;2023-04-25T11:19:40;7.40;79.80
9820;DHT22;4949;48.482;9.206;2023-04-25T11:24:41;7.20;80.40
9820;DHT22;4949;48.482;9.206;2023-04-25T11:29:45;7.20;78.80
9820;DHT22;4949;48.482;9.206;2023-04-25T11:34:48;7.20;79.70
9820;DHT22;4949;48.482;9.206;2023-04-25T11:39:53;7.20;81.10
9820;DHT22;4949;48.482;9.206;2023-04-25T11:44:56;7.30;80.40
9820;DHT22;4949;48.482;9.206;2023-04-25T11:50:02;7.30;78.60
9820;DHT22;4949;48.482;9.206;2023-04-25T11:55:18;7.30;80.10
9820;DHT22;4949;48.482;9.206;2023-04-25T12:00:22;7.40;79.80
9820;DHT22;4949;48.482;9.206;2023-04-25T12:05:28;7.40;80.50
9820;DHT22;4949;48.482;9.206;2023-04-25T12:10:31;7.50;79.70
9820;DHT22;4949;48.482;9.206;2023-04-25T12:15:33;7.50;79.70
9820;DHT22;4949;48.482;9.206;2023-04-25T12:20:35;7.70;79.10
9820;DHT22;4949;48.482;9.206;2023-04-25T12:25:41;7.70;79.30
9820;DHT22;4949;48.482;9.206;2023-04-25T12:31:01;7.80;78.60
9820;DHT22;4949;48.482;9.206;2023-04-25T12:36:05;7.90;79.30
9820;DHT22;4949;48.482;9.206;2023-04-25T12:41:09;7.90;79.00
9820;DHT22;4949;48.482;9.206;2023-04-25T12:46:10;8.00;80.90
9820;DHT22;4949;48.482;9.206;2023-04-25T12:51:13;8.10;81.50
9820;DHT22;4949;48.482;9.206;2023-04-25T12:56:16;8.20;80.40
9820;DHT22;4949;48.482;9.206;2023-04-25T13:01:17;8.40;81.60
9820;DHT22;4949;48.482;9.206;2023-04-25T13:06:18;8.50;80.60
9820;DHT22;4949;48.482;9.206;2023-04-25T13:11:20;8.70;79.70
9820;DHT22;4949;48.482;9.206;2023-04-25T13:16:23;8.80;83.50
9820;DHT22;4949;48.482;9.206;2023-04-25T13:21:26;8.90;82.50
9820;DHT22;4949;48.482;9.206;2023-04-25T13:26:27;9.00;82.80
9820;DHT22;4949;48.482;9.206;2023-04-25T13:31:31;9.10;81.50
9820;DHT22;4949;48.482;9.206;2023-04-25T13:36:34;9.10;82.10
9820;DHT22;4949;48.482;9.206;2023-04-25T13:41:39;9.50;80.70
9820;DHT22;4949;48.482;9.206;2023-04-25T13:46:44;9.30;79.00
9820;DHT22;4949;48.482;9.206;2023-04-25T13:51:46;9.30;78.40
9820;DHT22;4949;48.482;9.206;2023-04-25T13:56:47;9.30;78.80
9820;DHT22;4949;48.482;9.206;2023-04-25T14:01:49;9.40;79.00
9820;DHT22;4949;48.482;9.206;2023-04-25T14:06:50;9.70;80.50
9820;DHT22;4949;48.482;9.206;2023-04-25T14:11:55;10.00;78.70
9820;DHT22;4949;48.482;9.206;2023-04-25T14:16:56;10.20;76.40
9820;DHT22;4949;48.482;9.206;2023-04-25T14:21:57;10.30;74.90
9820;DHT22;4949;48.482;9.206;2023-04-25T14:27:00;10.40;73.80
9820;DHT22;4949;48.482;9.206;2023-04-25T14:32:01;10.40;73.60
9820;DHT22;4949;48.482;9.206;2023-04-25T14:37:02;10.40;71.20
9820;DHT22;4949;48.482;9.206;2023-04-25T14:42:06;10.40;70.90
9820;DHT22;4949;48.482;9.206;2023-04-25T14:47:11;10.50;71.70
9820;DHT22;4949;48.482;9.206;2023-04-25T14:52:14;10.80;72.70
9820;DHT22;4949;48.482;9.206;2023-04-25T14:57:18;11.20;70.50
9820;DHT22;4949;48.482;9.206;2023-04-25T15:02:21;11.30;67.50
9820;DHT22;4949;48.482;9.206;2023-04-25T15:07:24;11.50;68.90
9820;DHT22;4949;48.482;9.206;2023-04-25T15:12:25;11.30;67.00
9820;DHT22;4949;48.482;9.206;2023-04-25T15:17:30;11.20;67.20
9820;DHT22;4949;48.482;9.206;2023-04-25T15:22:34;11.50;67.00
9820;DHT22;4949;48.482;9.206;2023-04-25T15:27:38;11.80;66.10
9820;DHT22;4949;48.482;9.206;2023-04-25T15:32:45;12.00;65.40
9820;DHT22;4949;48.482;9.206;2023-04-25T15:37:49;12.20;63.70
9820;DHT22;4949;48.482;9.206;2023-04-25T15:42:52;12.10;62.90
9820;DHT22;4949;48.482;9.206;2023-04-25T15:47:56;12.00;63.40
9820;DHT22;4949;48.482;9.206;2023-04-25T15:52:56;12.00;63.90
9820;DHT22;4949;48.482;9.206;2023-04-25T15:57:57;12.20;63.40
9820;DHT22;4949;48.482;9.206;2023-04-25T16:03:01;12.30;62.30
9820;DHT22;4949;48.482;9.206;2023-04-25T16:08:05;12.60;63.00
9820;DHT22;4949;48.482;9.206;2023-04-25T16:13:05;12.30;62.30
9820;DHT22;4949;48.482;9.206;2023-04-25T16:18:06;12.50;62.30
9820;DHT22;4949;48.482;9.206;2023-04-25T16:23:09;12.60;62.10
9820;DHT22;4949;48.482;9.206;2023-04-25T16:28:10;12.90;60.30
9820;DHT22;4949;48.482;9.206;2023-04-25T16:33:11;12.80;59.20
9820;DHT22;4949;48.482;9.206;2023-04-25T16:38:14;12.80;58.90
9820;DHT22;4949;48.482;9.206;2023-04-25T16:43:17;12.50;60.00
9820;DHT22;4949;48.482;9.206;2023-04-25T16:48:20;12.30;60.70
9820;DHT22;4949;48.482;9.206;2023-04-25T16:53:23;12.30;62.00
9820;DHT22;4949;48.482;9.206;2023-04-25T16:58:24;12.20;63.10
9820;DHT22;4949;48.482;9.206;2023-04-25T17:03:26;12.20;62.90
9820;DHT22;4949;48.482;9.206;2023-04-25T17:08:27;11.80;63.70
9820;DHT22;4949;48.482;9.206;2023-04-25T17:13:31;11.80;64.00
9820;DHT22;4949;48.482;9.206;2023-04-25T17:18:32;11.80;64.70
9820;DHT22;4949;48.482;9.206;2023-04-25T17:23:33;11.80;65.20
9820;DHT22;4949;48.482;9.206;2023-04-25T17:28:36;11.70;65.80
9820;DHT22;4949;48.482;9.206;2023-04-25T17:33:37;11.70;65.70
9820;DHT22;4949;48.482;9.206;2023-04-25T17:38:40;11.50;65.10
9820;DHT22;4949;48.482;9.206;2023-04-25T17:43:43;11.50;66.30
9820;DHT22;4949;48.482;9.206;2023-04-25T17:48:49;11.40;66.60
9820;DHT22;4949;48.482;9.206;2023-04-25T17:53:50;11.30;67.40
9820;DHT22;4949;48.482;9.206;2023-04-25T17:58:51;11.20;68.10
9820;DHT22;4949;48.482;9.206;2023-04-25T18:03:54;11.20;69.00
9820;DHT22;4949;48.482;9.206;2023-04-25T18:08:57;11.10;69.10
9820;DHT22;4949;48.482;9.206;2023-04-25T18:14:02;10.90;69.70
9820;DHT22;4949;48.482;9.206;2023-04-25T18:19:16;10.70;71.20
9820;DHT22;4949;48.482;9.206;2023-04-25T18:24:26;10.50;72.70
9820;DHT22;4949;48.482;9.206;2023-04-25T18:29:27;10.50;73.80
9820;DHT22;4949;48.482;9.206;2023-04-25T18:34:31;10.40;74.80
9820;DHT22;4949;48.482;9.206;2023-04-25T18:39:35;10.30;75.00
9820;DHT22;4949;48.482;9.206;2023-04-25T18:44:36;10.20;75.30
9820;DHT22;4949;48.482;9.206;2023-04-25T18:49:39;10.20;75.60
9820;DHT22;4949;48.482;9.206;2023-04-25T18:54:45;10.10;75.90
9820;DHT22;4949;48.482;9.206;2023-04-25T18:59:46;10.10;76.70
9820;DHT22;4949;48.482;9.206;2023-04-25T19:04:47;10.30;77.20
9820;DHT22;4949;48.482;9.206;2023-04-25T19:09:48;10.10;75.20
9820;DHT22;4949;48.482;9.206;2023-04-25T19:14:49;10.10;75.50
9820;DHT22;4949;48.482;9.206;2023-04-25T19:19:53;9.80;77.40
9820;DHT22;4949;48.482;9.206;2023-04-25T19:24:56;9.60;78.10
9820;DHT22;4949;48.482;9.206;2023-04-25T19:29:58;9.70;79.30
9820;DHT22;4949;48.482;9.206;2023-04-25T19:35:07;9.60;79.10
9820;DHT22;4949;48.482;9.206;2023-04-25T19:40:16;9.70;79.10
9820;DHT22;4949;48.482;9.206;2023-04-25T19:45:19;9.60;79.60
9820;DHT22;4949;48.482;9.206;2023-04-25T19:50:20;9.60;79.90
9820;DHT22;4949;48.482;9.206;2023-04-25T19:55:27;9.40;80.90
9820;DHT22;4949;48.482;9.206;2023-04-25T20:00:27;9.50;80.50
9820;DHT22;4949;48.482;9.206;2023-04-25T20:05:31;9.50;79.80
9820;DHT22;4949;48.482;9.206;2023-04-25T20:10:35;9.50;78.90
9820;DHT22;4949;48.482;9.206;2023-04-25T20:15:36;9.60;78.50
9820;DHT22;4949;48.482;9.206;2023-04-25T20:20:42;9.40;77.80
9820;DHT22;4949;48.482;9.206;2023-04-25T20:25:42;9.20;78.10
9820;DHT22;4949;48.482;9.206;2023-04-25T20:30:49;9.20;80.00
9820;DHT22;4949;48.482;9.206;2023-04-25T20:35:53;9.10;81.00
9820;DHT22;4949;48.482;9.206;2023-04-25T20:40:58;9.10;79.90
9820;DHT22;4949;48.482;9.206;2023-04-25T20:45:59;9.00;80.10
9820;DHT22;4949;48.482;9.206;2023-04-25T20:51:00;9.00;80.40
9820;DHT22;4949;48.482;9.206;2023-04-25T20:56:01;9.10;79.60
9820;DHT22;4949;48.482;9.206;2023-04-25T21:01:04;9.20;79.90
9820;DHT22;4949;48.482;9.206;2023-04-25T21:06:05;9.00;79.00
9820;DHT22;4949;48.482;9.206;2023-04-25T21:11:10;8.90;78.30
9820;DHT22;4949;48.482;9.206;2023-04-25T21:16:14;8.90;79.10
9820;DHT22;4949;48.482;9.206;2023-04-25T21:21:15;8.70;79.70
9820;DHT22;4949;48.482;9.206;2023-04-25T21:26:18;8.60;80.10
9820;DHT22;4949;48.482;9.206;2023-04-25T21:31:21;8.60;79.90
9820;DHT22;4949;48.482;9.206;2023-04-25T21:36:22;8.60;80.80
9820;DHT22;4949;48.482;9.206;2023-04-25T21:41:26;8.60;81.20
9820;DHT22;4949;48.482;9.206;2023-04-25T21:46:29;8.50;81.20
9820;DHT22;4949;48.482;9.206;2023-04-25T21:51:29;8.50;81.50
9820;DHT22;4949;48.482;9.206;2023-04-25T21:56:31;8.50;82.10
9820;DHT22;4949;48.482;9.206;2023-04-25T22:01:34;8.50;82.50
9820;DHT22;4949;48.482;9.206;2023-04-25T22:06:38;8.40;82.10
9820;DHT22;4949;48.482;9.206;2023-04-25T22:11:41;8.40;82.40
9820;DHT22;4949;48.482;9.206;2023-04-25T22:16:44;8.40;82.70
9820;DHT22;4949;48.482;9.206;2023-04-25T22:21:45;8.50;82.90
9820;DHT22;4949;48.482;9.206;2023-04-25T22:26:47;8.50;83.20
9820;DHT22;4949;48.482;9.206;2023-04-25T22:31:48;8.50;83.20
9820;DHT22;4949;48.482;9.206;2023-04-25T22:36:49;8.40;83.50
9820;DHT22;4949;48.482;9.206;2023-04-25T22:41:50;8.40;83.90
9820;DHT22;4949;48.482;9.206;2023-04-25T22:46:51;8.40;84.30
9820;DHT22;4949;48.482;9.206;2023-04-25T22:51:52;8.60;84.70
9820;DHT22;4949;48.482;9.206;2023-04-25T22:56:55;8.50;83.60
9820;DHT22;4949;48.482;9.206;2023-04-25T23:01:57;8.60;81.90
9820;DHT22;4949;48.482;9.206;2023-04-25T23:07:00;8.60;81.10
9820;DHT22;4949;48.482;9.206;2023-04-25T23:12:01;8.50;81.40
9820;DHT22;4949;48.482;9.206;2023-04-25T23:17:04;8.50;80.30
9820;DHT22;4949;48.482;9.206;2023-04-25T23:22:05;8.30;81.70
9820;DHT22;4949;48.482;9.206;2023-04-25T23:27:09;8.20;80.60
9820;DHT22;4949;48.482;9.206;2023-04-25T23:32:09;8.10;80.60
9820;DHT22;4949;48.482;9.206;2023-04-25T23:37:13;8.30;81.60
9820;DHT22;4949;48.482;9.206;2023-04-25T23:42:13;8.10;82.80
9820;DHT22;4949;48.482;9.206;2023-04-25T23:47:17;8.20;82.50
9820;DHT22;4949;48.482;9.206;2023-04-25T23:52:18;8.20;81.60
9820;DHT22;4949;48.482;9.206;2023-04-25T23:57:21;8.10;83.30
